Terminal Aerodrome Forecast
Issued by NWS

Home | Current Version | Previous Version | Text Only | Print | Product List | Glossary On
Versions: 1 2 3 4 5 6 7 8 9 10 11 12 13 14
074
FTUS45 KTFX 262339
TAFLWT
TAF
KLWT 262339Z 2700/2724 35011KT P6SM BKN070
     FM270200 VRB06KT P6SM VCSH SCT040 BKN070
     FM270500 15004KT P6SM SCT060 BKN100
     FM272100 02007KT P6SM SCT040 BKN070
      TEMPO 2721/2724 5SM TSRAGS BKN040CB=

USA.gov is the U.S. government's official web portal to all federal, state and local government web resources and services.